• Join FlightAware (Why Join?)
  • Login
  • US Flag 
09:10AM EST


 

Airport Tracker/Info


-or-


 

Live Flight TrackerFlight Track Log ✈ RPA3872 ✈ 15-Apr-2014 ✈ KCMH - KIAD

Flight Track Log - Related Links

Times and Time Zones

All times are in EDT time to prevent confusion due to time zone crossing. See the RPA3872 flight status page for this flight to view local times or setup timezone preferences in your user account.

Time Position Orientation Groundspeed Altitude Reporting Facility
EDT Latitude Longitude Course Direction KTS MPH feet Rate Location/Type
08:14PM 40.0239 -82.9244 336° Northwest 172 198 2,900  Level Indianapolis Center
08:14PM 40.0378 -82.9231 North 182 209 3,700 2,747 Climbing Indianapolis Center
08:15PM 40.0525 -82.8633 72° East 205 236 6,700 2,829 Climbing Indianapolis Center
08:16PM 40.0450 -82.7842 97° East 219 252 9,500 2,488 Climbing Indianapolis Center
08:17PM 40.0369 -82.6989 97° East 228 262 11,800 2,226 Climbing Indianapolis Center
08:18PM 40.0208 -82.6022 102° East 260 299 14,100 2,293 Climbing Indianapolis Center
08:19PM 39.9471 -82.1033 95° East  Level FlightAware Approximate
08:19PM 40.0050 -82.5011 102° East 278 320 16,500  Level Indianapolis Center
08:21PM 39.9864 -82.3808 101° East 281 323 18,700 1,805 Climbing Indianapolis Center
08:22PM 39.9692 -82.2819 103° East 281 323 20,200 1,268 Climbing Indianapolis Center
08:23PM 39.9528 -82.1747 101° East 293 337 21,300 1,113 Climbing Indianapolis Center
08:24PM 39.9336 -82.0631 103° East 311 358 22,500 1,171 Climbing Indianapolis Center
08:25PM 39.9164 -81.9503 101° East 315 362 23,700 1,122 Climbing Indianapolis Center
08:26PM 39.8983 -81.8356 102° East 319 367 24,800 629 Climbing Indianapolis Center
08:27PM 39.8786 -81.7172 102° East 329 379 25,000 98 Climbing Indianapolis Center
08:28PM 39.8575 -81.5886 102° East 356 410 25,000  Level Indianapolis Center
08:29PM 39.8308 -81.4300 102° East 369 425 25,000  Level Indianapolis Center
08:30PM 39.8111 -81.3106 102° East 370 426 25,000  Level Cleveland Center
08:31PM 39.7847 -81.1544 102° East 370 426 25,000  Level Cleveland Center
08:32PM 39.7622 -81.0236 103° East 372 428 25,000  Level Cleveland Center
08:33PM 39.7469 -80.8897 98° East 373 429 25,000  Level Cleveland Center
08:34PM 39.7333 -80.7539 97° East 381 438 25,000  Level Cleveland Center
08:36PM 39.7011 -80.4567 98° East 381 438 25,000 -227 Level Cleveland Center
08:37PM 39.6864 -80.3203 98° East 382 440 24,300 -919 Descending Cleveland Center
08:38PM 39.6714 -80.1839 98° East 384 442 23,100 -1,161 Descending Cleveland Center
08:39PM 39.6553 -80.0475 99° East 385 443 21,900 -1,161 Descending Cleveland Center
08:40PM 39.6406 -79.9156 98° East 380 437 20,700 -1,161 Descending Cleveland Center
08:41PM 39.6261 -79.7858 98° East 372 428 19,500 -1,268 Descending Cleveland Center
08:42PM 39.6081 -79.6358 99° East 359 413 18,100 -1,220 Descending Cleveland Center
08:43PM 39.5947 -79.5111 98° East 355 409 17,000 -532 Descending Cleveland Center
08:44PM 39.5783 -79.3875 100° East 351 404 17,000  Level Cleveland Center
08:45PM 39.5639 -79.2608 98° East 353 406 17,000  Level Cleveland Center
08:46PM 39.5489 -79.1339 99° East 355 409 17,000 -194 Level Cleveland Center
08:47PM 39.5322 -79.0083 100° East 355 409 16,600 -829 Descending Cleveland Center
08:48PM 39.5183 -78.8778 98° East 355 409 15,300 -1,317 Descending Cleveland Center
08:49PM 39.4989 -78.7289 100° East 351 404 13,900 -1,258 Descending Cleveland Center
08:50PM 39.4828 -78.6031 99° East 354 407 12,700 -1,073 Descending Cleveland Center
08:51PM 39.4667 -78.4739 99° East 362 417 11,700 -791 Descending Cleveland Center
08:53PM 39.4489 -78.3436 100° East 353 406 11,000 -333 Descending Washington Center
08:54PM 39.4328 -78.2222 100° East 348 400 11,000  Level Washington Center
08:55PM 39.4167 -78.1061 100° East 338 389 11,000 62 Level Washington Center
08:55PM 39.4103 -78.0394 97° East 333 383 11,100 -619 Climbing Cleveland Center
08:56PM 39.3964 -77.9267 99° East 321 369 10,000 -1,415 Descending Cleveland Center
08:57PM 39.3828 -77.7967 98° East 307 353 8,200 -1,646 Descending Cleveland Center
08:58PM 39.3667 -77.7000 102° East 293 337 6,900 -1,487 Descending Potomac TRACON
08:59PM 39.3500 -77.6000 102° East 280 322 5,300 -1,250 Descending Potomac TRACON
09:00PM 39.3333 -77.5167 104° East 273 314 4,400 -650 Descending Potomac TRACON
09:01PM 39.2833 -77.4333 128° Southeast 273 314 4,000 -198 Descending Potomac TRACON
09:02PM 39.2333 -77.3667 134° Southeast 275 316 4,000  Level Potomac TRACON
09:03PM 39.1500 -77.3500 171° South 278 320 4,000  Level Potomac TRACON
09:04PM 39.0833 -77.3500 180° South 266 306 4,000 -50 Level Potomac TRACON
09:05PM 39.0000 -77.3500 180° South 283 326 3,900 -450 Descending Potomac TRACON
09:06PM 38.9333 -77.3667 191° South 263 303 3,100 -450 Descending Potomac TRACON
09:07PM 38.8500 -77.3500 171° South 261 300 3,000 -446 Descending Potomac TRACON
09:08PM 38.8000 -77.3833 207° Southwest 248 285 2,200 -496 Descending Potomac TRACON
09:09PM 38.8167 -77.4333 293° West 165 190 2,000 -200 Descending Potomac TRACON
09:10PM 38.8500 -77.4333 360° North 130 150 1,800 -400 Descending Potomac TRACON
09:11PM 38.8833 -77.4333 360° North 104 120 1,200 -595 Descending Potomac TRACON
09:12PM 38.9167 -77.4333 360° North 111 128 600 -316 Descending Potomac TRACON
09:14PM 38.9547 -77.4361 357° North 114 131 400 -132 Descending Cleveland Center